Flight Track Log - Related Links

Times and Time Zones

All times are in EDT time to prevent confusion due to time zone crossing. See the ASQ5958 flight status page for this flight to view local times or setup timezone preferences in your user account.

Time Position Orientation Groundspeed Altitude Reporting Facility
EDT Latitude Longitude Course Direction KTS MPH feet Rate Location/Type
Mon 09:08:06 PM 40.4886 -80.2006 91° East 169 194 1,800  Level FAA TRACON SMA TRACON (SMA)
Mon 09:08:26 PM 40.4883 -80.1839 91° East 170 196 2,400 1,800 Climbing FAA TRACON SMA TRACON (SMA)
Mon 09:08:46 PM 40.4908 -80.1550 83° East 198 228 3,000 1,846 Climbing FAA TRACON SMA TRACON (SMA)
Mon 09:09:05 PM 40.5017 -80.1344 55° Northeast 245 282 3,600 2,250 Climbing FAA TRACON SMA TRACON (SMA)
Mon 09:09:26 PM 40.5214 -80.1272 16° North 252 290 4,500 2,634 Climbing FAA TRACON SMA TRACON (SMA)
Mon 09:09:46 PM 40.5444 -80.1414 335° Northwest 246 283 5,400 2,250 Climbing FAA TRACON SMA TRACON (SMA)
Mon 09:10:06 PM 40.5600 -80.1603 317° Northwest 260 299 6,000 1,950 Climbing FAA TRACON SMA TRACON (SMA)
Mon 09:10:26 PM 40.5761 -80.1806 316° Northwest 264 304 6,700 2,100 Climbing FAA TRACON SMA TRACON (SMA)
Mon 09:10:46 PM 40.5881 -80.2097 298° West 258 297 7,400 2,550 Climbing FAA TRACON SMA TRACON (SMA)
Mon 09:11:06 PM 40.5944 -80.2397 286° West 256 295 8,400 2,400 Climbing FAA TRACON SMA TRACON (SMA)
Mon 09:11:26 PM 40.5981 -80.2656 280° West 254 292 9,000 2,550 Climbing FAA TRACON SMA TRACON (SMA)
Mon 09:11:46 PM 40.6031 -80.3039 280° West 262 302 10,100 2,700 Climbing FAA TRACON SMA TRACON (SMA)
Mon 09:12:06 PM 40.6061 -80.3333 278° West 265 305 10,800 1,800 Climbing FAA TRACON SMA TRACON (SMA)
Mon 09:12:26 PM 40.6092 -80.3689 276° West 269 310 11,300 1,500 Climbing FAA TRACON SMA TRACON (SMA)
Mon 09:12:46 PM 40.6150 -80.4033 283° West 295 339 11,800 1,200 Climbing FAA TRACON SMA TRACON (SMA)
Mon 09:13:06 PM 40.6192 -80.4364 279° West 311 358 12,100 1,050 Climbing FAA TRACON SMA TRACON (SMA)
Mon 09:13:26 PM 40.6242 -80.4803 279° West 318 366 12,500 1,200 Climbing FAA TRACON SMA TRACON (SMA)
Mon 09:13:46 PM 40.6289 -80.5167 280° West 332 382 12,900 1,600 Climbing FAA TRACON SMA TRACON (SMA)
Mon 09:14:26 PM 40.6386 -80.5994 279° West 333 383 14,100 1,800 Climbing FAA TRACON SMA TRACON (SMA)
Mon 09:14:46 PM 40.6431 -80.6364 279° West 333 383 14,700 1,650 Climbing FAA TRACON SMA TRACON (SMA)
Mon 09:15:06 PM 40.6475 -80.6733 279° West 332 382 15,200 1,650 Climbing FAA TRACON SMA TRACON (SMA)
Mon 09:15:26 PM 40.6531 -80.7197 279° West 334 384 15,800 1,500 Climbing FAA TRACON SMA TRACON (SMA)
Mon 09:15:46 PM 40.6575 -80.7572 279° West 336 387 16,200 1,350 Climbing FAA TRACON SMA TRACON (SMA)
Mon 09:16:06 PM 40.6619 -80.7950 279° West 338 389 16,700 1,650 Climbing FAA TRACON SMA TRACON (SMA)
Mon 09:16:26 PM 40.6672 -80.8425 278° West 340 391 17,300 1,500 Climbing FAA TRACON SMA TRACON (SMA)
Mon 09:16:46 PM 40.6722 -80.8806 280° West 341 392 17,700 1,200 Climbing FAA TRACON SMA TRACON (SMA)
Mon 09:17:06 PM 40.6764 -80.9186 278° West 341 392 18,100 1,200 Climbing FAA TRACON SMA TRACON (SMA)
Mon 09:17:26 PM 40.6819 -80.9661 279° West 342 394 18,500 1,200 Climbing FAA TRACON SMA TRACON (SMA)
Mon 09:17:46 PM 40.6864 -81.0044 279° West 343 395 18,900 1,050 Climbing FAA TRACON SMA TRACON (SMA)
Mon 09:18:06 PM 40.6911 -81.0433 279° West 346 398 19,200 1,350 Climbing FAA TRACON SMA TRACON (SMA)
Mon 09:18:26 PM 40.6969 -81.0922 279° West 350 403 19,800 1,500 Climbing FAA TRACON SMA TRACON (SMA)
Mon 09:18:46 PM 40.7017 -81.1314 279° West 351 404 20,200 1,050 Climbing FAA TRACON SMA TRACON (SMA)
Mon 09:19:06 PM 40.7058 -81.1708 278° West 352 405 20,500 1,200 Climbing FAA TRACON SMA TRACON (SMA)
Mon 09:19:26 PM 40.7119 -81.2203 279° West 353 406 21,000 1,385 Climbing FAA TRACON SMA TRACON (SMA)
Mon 09:19:45 PM 40.7161 -81.2597 278° West 354 407 21,400 1,200 Climbing FAA TRACON SMA TRACON (SMA)
Mon 09:20:06 PM 40.7206 -81.2994 278° West 355 409 21,800 1,463 Climbing FAA TRACON SMA TRACON (SMA)
Mon 09:20:26 PM 40.7264 -81.3486 279° West 354 407 22,400 1,200 Climbing FAA TRACON SMA TRACON (SMA)
Mon 09:20:46 PM 40.7308 -81.3881 278° West 353 406 22,600 600 Climbing FAA TRACON SMA TRACON (SMA)
Mon 09:21:06 PM 40.7339 -81.4178 278° West 354 407 22,800 300 Climbing FAA TRACON SMA TRACON (SMA)
Mon 09:21:26 PM 40.7339 -81.4178 123° Southeast 354 407 22,800 696 Level FAA TRACON SMA TRACON (SMA)
Mon 09:22:15 PM 40.7842 -81.5731 293° West 359 413 23,600 936 Climbing Cleveland Center
Mon 09:23:15 PM 40.8247 -81.7000 293° West 373 429 24,500 900 Climbing Cleveland Center
Mon 09:24:15 PM 40.8586 -81.8294 289° West 373 429 25,400 850 Climbing Cleveland Center
Mon 09:25:15 PM 40.8697 -81.9506 277° West 373 429 26,200 900 Climbing Cleveland Center
Mon 09:26:15 PM 40.8869 -82.0828 280° West 373 429 27,200 950 Climbing Cleveland Center
Mon 09:27:15 PM 40.9019 -82.2150 279° West 368 423 28,100 950 Climbing Cleveland Center
Mon 09:28:15 PM 40.9144 -82.3444 277° West 368 423 29,100 950 Climbing Cleveland Center
Mon 09:29:15 PM 40.9289 -82.4850 278° West 368 423 30,000 900 Climbing Cleveland Center
Mon 09:30:15 PM 40.9411 -82.6144 277° West 360 414 30,900 950 Climbing Cleveland Center
Mon 09:31:15 PM 40.9556 -82.7442 278° West 360 414 31,900 950 Climbing Cleveland Center
Mon 09:32:15 PM 40.9675 -82.8739 277° West 355 409 32,800 950 Climbing Cleveland Center
Mon 09:33:15 PM 40.9817 -82.9981 279° West 350 403 33,800 950 Climbing Cleveland Center
Mon 09:34:15 PM 40.9936 -83.1250 277° West 350 403 34,700 900 Climbing Cleveland Center
Mon 09:35:15 PM 41.0094 -83.2494 280° West 350 403 35,600 650 Climbing Cleveland Center
Mon 09:36:15 PM 41.0211 -83.3739 277° West 345 397 36,000 200 Climbing Cleveland Center
Mon 09:37:15 PM 41.0325 -83.4983 277° West 350 403 36,000  Level Cleveland Center
Mon 09:38:15 PM 41.0439 -83.6200 277° West 355 409 36,000  Level Cleveland Center
Mon 09:39:15 PM 41.0569 -83.7583 277° West 365 420 36,000  Level Cleveland Center
Mon 09:40:48 PM 41.0747 -83.9572 277° West 369 425 36,000  Level Chicago Center
Mon 09:41:50 PM 41.0864 -84.0900 277° West 364 419 36,000  Level Chicago Center
Mon 09:42:51 PM 41.1011 -84.2469 277° West 358 412 36,000  Level Chicago Center
Mon 09:43:53 PM 41.1133 -84.3747 277° West 352 405 36,000  Level Chicago Center
Mon 09:44:55 PM 41.1236 -84.5075 276° West 361 415 36,000  Level Chicago Center
Mon 09:45:56 PM 41.1350 -84.6422 276° West 367 422 36,000  Level Chicago Center
Mon 09:46:58 PM 41.1475 -84.7783 277° West 370 426 36,000  Level Chicago Center
Mon 09:48:00 PM 41.1589 -84.9169 276° West 376 433 36,000  Level Chicago Center
Mon 09:49:01 PM 41.1694 -85.0553 276° West 377 434 36,000  Level Chicago Center
Mon 09:50:03 PM 41.1814 -85.1939 277° West 377 434 36,000  Level Chicago Center
Mon 09:51:05 PM 41.1936 -85.3603 276° West 377 434 36,000  Level Chicago Center
Mon 09:52:06 PM 41.2050 -85.4989 276° West 376 433 36,000  Level Chicago Center
Mon 09:53:08 PM 41.2158 -85.6386 276° West 378 435 36,000  Level Chicago Center
Mon 09:54:10 PM 41.2264 -85.7772 276° West 377 434 36,000  Level Chicago Center
Mon 09:55:11 PM 41.2369 -85.9156 276° West 376 433 36,000  Level Chicago Center
Mon 09:56:13 PM 41.2469 -86.0553 275° West 378 435 36,000  Level Chicago Center
Mon 09:57:14 PM 41.2567 -86.1917 275° West 374 430 36,000  Level Chicago Center
Mon 09:58:16 PM 41.2669 -86.3325 276° West 377 434 36,000  Level Chicago Center
Mon 09:59:17 PM 41.2767 -86.4700 275° West 379 436 36,000  Level Chicago Center
Mon 10:00:19 PM 41.2878 -86.6353 275° West 377 434 36,000  Level Chicago Center
Mon 10:01:20 PM 41.2981 -86.7711 276° West 373 429 36,000  Level Chicago Center
Mon 10:02:22 PM 41.3058 -86.9067 274° West 371 427 36,000  Level Chicago Center
Mon 10:03:23 PM 41.3150 -87.0450 275° West 375 432 36,000  Level Chicago Center
Mon 10:04:25 PM 41.3242 -87.1847 275° West 380 437 36,000  Level Chicago Center
Mon 10:05:26 PM 41.3328 -87.3219 275° West 376 433 36,000  Level Chicago Center
Mon 10:06:27 PM 41.3417 -87.4603 275° West 377 434 36,000  Level Chicago Center
Mon 10:07:29 PM 41.3519 -87.6256 275° West 375 432 36,000  Level Chicago Center
Mon 10:08:30 PM 41.3600 -87.7625 275° West 373 429 36,000  Level Chicago Center
Mon 10:09:32 PM 41.3675 -87.9000 274° West 373 429 36,000  Level Chicago Center
Mon 10:10:33 PM 41.3764 -88.0403 275° West 377 434 36,000  Level Chicago Center
Mon 10:11:34 PM 41.3828 -88.1767 274° West 373 429 36,000  Level Chicago Center
Mon 10:12:35 PM 41.3906 -88.3211 274° West 369 425 36,000  Level Chicago Center
Mon 10:13:37 PM 41.3981 -88.4564 274° West 369 425 36,000  Level Chicago Center
Mon 10:14:38 PM 41.4044 -88.5933 274° West 372 428 36,000  Level Chicago Center
Mon 10:15:39 PM 41.4111 -88.7281 274° West 369 425 36,000  Level Chicago Center
Mon 10:16:40 PM 41.4183 -88.8644 274° West 371 427 36,000  Level Chicago Center
Mon 10:17:42 PM 41.4236 -88.9992 273° West 369 425 36,000  Level Chicago Center
Mon 10:18:43 PM 41.4311 -89.1356 274° West 369 425 36,000  Level Chicago Center
Mon 10:19:44 PM 41.4392 -89.2931 274° West 373 429 36,000  Level Chicago Center
Mon 10:20:45 PM 41.4458 -89.4281 274° West 369 425 36,000  Level Chicago Center
Mon 10:21:46 PM 41.4511 -89.5636 273° West 368 423 36,000  Level Chicago Center
Mon 10:22:48 PM 41.4567 -89.6992 273° West 369 425 36,000  Level Chicago Center
Mon 10:23:49 PM 41.4619 -89.8325 273° West 365 420 36,000  Level Chicago Center
Mon 10:24:50 PM 41.4678 -89.9594 274° West 351 404 36,000  Level Chicago Center
Mon 10:25:51 PM 41.4733 -90.0844 273° West 342 394 36,000  Level Chicago Center
Mon 10:26:52 PM 41.4764 -90.2111 272° West 344 396 36,000  Level Chicago Center
Mon 10:27:54 PM 41.4831 -90.3606 273° West 342 394 36,000  Level Chicago Center
Mon 10:28:55 PM 41.4881 -90.4900 273° West 350 403 36,000  Level Chicago Center
Mon 10:29:56 PM 41.4928 -90.6228 273° West 358 412 36,000  Level Chicago Center
Mon 10:30:57 PM 41.4944 -90.7569 271° West 359 413 36,000  Level Chicago Center
Mon 10:31:58 PM 41.4989 -90.8867 273° West 352 405 36,000  Level Chicago Center
Mon 10:32:59 PM 41.5031 -91.0150 273° West 349 402 36,000  Level Chicago Center
Mon 10:34:00 PM 41.5069 -91.1436 272° West 347 399 36,000  Level Chicago Center
Mon 10:35:02 PM 41.5103 -91.2717 272° West 347 399 36,000  Level Chicago Center
Mon 10:36:03 PM 41.5139 -91.4108 272° West 347 399 36,000  Level Chicago Center
Mon 10:37:04 PM 41.5167 -91.5375 272° West 344 396 36,000  Level Chicago Center
Mon 10:38:05 PM 41.5186 -91.6631 271° West 342 394 36,000  Level Chicago Center
Mon 10:39:06 PM 41.5139 -91.7894 267° West 345 397 36,000  Level Chicago Center
Mon 10:40:07 PM 41.5097 -91.9139 267° West 340 391 36,000  Level Chicago Center
Mon 10:41:08 PM 41.5053 -92.0394 267° West 340 391 36,000  Level Chicago Center
Mon 10:42:09 PM 41.4992 -92.1881 267° West 338 389 36,000  Level Chicago Center
Mon 10:43:10 PM 41.4947 -92.3133 267° West 339 390 36,000  Level Chicago Center
Mon 10:44:11 PM 41.4908 -92.4292 267° West 339 390 36,000  Level Chicago Center
Mon 10:45:12 PM 41.4858 -92.5522 267° West 338 389 36,000  Level Chicago Center
Mon 10:46:13 PM 41.4808 -92.6742 267° West 334 384 36,000  Level Chicago Center
Mon 10:47:15 PM 41.4747 -92.8217 267° West 335 386 36,000  Level Chicago Center
Mon 10:48:16 PM 41.4694 -92.9450 267° West 336 387 36,000  Level Chicago Center
Mon 10:49:17 PM 41.4642 -93.0669 267° West 335 386 36,000  Level Chicago Center
Mon 10:50:18 PM 41.4583 -93.1917 266° West 340 391 36,000  Level Chicago Center
Mon 10:51:19 PM 41.4531 -93.3142 267° West 337 388 36,000  Level Chicago Center
Mon 10:52:20 PM 41.4469 -93.4397 266° West 341 392 36,000  Level Chicago Center
Mon 10:53:21 PM 41.4406 -93.5633 266° West 339 390 36,000  Level Chicago Center
Mon 10:54:22 PM 41.4422 -93.6844 271° West 335 386 36,000  Level Chicago Center
Mon 10:55:23 PM 41.4600 -93.8358 279° West 344 396 36,000  Level Chicago Center
Mon 10:56:24 PM 41.4742 -93.9619 279° West 345 397 36,000  Level Chicago Center
Mon 10:57:25 PM 41.4889 -94.0881 279° West 347 399 36,000  Level Chicago Center
Mon 10:58:26 PM 41.5033 -94.2119 279° West 344 396 36,000  Level Chicago Center
Mon 10:59:27 PM 41.5175 -94.3375 279° West 344 396 36,000  Level Chicago Center
Mon 11:00:37 PM 41.5336 -94.4847 278° West 339 390 36,000  Level Minneapolis Center
Mon 11:01:38 PM 41.5467 -94.6086 278° West 338 389 36,000  Level Minneapolis Center
Mon 11:02:39 PM 41.5600 -94.7333 278° West 339 390 36,000  Level Minneapolis Center
Mon 11:03:41 PM 41.5744 -94.8569 279° West 338 389 36,000  Level Minneapolis Center
Mon 11:04:42 PM 41.5878 -94.9800 278° West 337 388 36,000  Level Minneapolis Center
Mon 11:05:43 PM 41.6011 -95.1019 278° West 334 384 36,000  Level Minneapolis Center
Mon 11:06:44 PM 41.6167 -95.2486 278° West 333 383 36,000  Level Minneapolis Center
Mon 11:07:45 PM 41.6308 -95.3703 279° West 334 384 36,000  Level Minneapolis Center
Mon 11:08:46 PM 41.6417 -95.4917 277° West 331 381 36,000  Level Minneapolis Center
Mon 11:09:48 PM 41.6542 -95.6114 278° West 328 377 36,000  Level Minneapolis Center
Mon 11:10:49 PM 41.6656 -95.7317 277° West 327 376 36,000  Level Minneapolis Center
Mon 11:11:50 PM 41.6772 -95.8533 277° West 331 381 36,000  Level Minneapolis Center
Mon 11:12:51 PM 41.6897 -95.9733 278° West 331 381 36,000  Level Minneapolis Center
Mon 11:13:52 PM 41.7014 -96.0942 277° West 330 380 36,000  Level Minneapolis Center
Mon 11:14:53 PM 41.7158 -96.2397 278° West 331 381 36,000  Level Minneapolis Center
Mon 11:15:54 PM 41.7269 -96.3619 277° West 332 382 36,000  Level Minneapolis Center
Mon 11:16:56 PM 41.7383 -96.4836 277° West 331 381 36,000  Level Minneapolis Center
Mon 11:17:57 PM 41.7492 -96.6081 277° West 336 387 36,000  Level Minneapolis Center
Mon 11:18:58 PM 41.7611 -96.7289 278° West 330 380 36,000  Level Minneapolis Center
Mon 11:19:59 PM 41.7711 -96.8536 276° West 335 386 36,000  Level Minneapolis Center
Mon 11:21:00 PM 41.7836 -96.9792 278° West 339 390 36,000  Level Minneapolis Center
Mon 11:22:01 PM 41.7939 -97.1056 276° West 341 392 36,000  Level Minneapolis Center
Mon 11:23:03 PM 41.8044 -97.2322 276° West 342 394 36,000  Level Minneapolis Center
Mon 11:24:04 PM 41.8161 -97.3578 277° West 341 392 36,000  Level Minneapolis Center
Mon 11:25:05 PM 41.8278 -97.5097 276° West 342 394 36,000  Level Minneapolis Center
Mon 11:26:06 PM 41.8392 -97.6350 277° West 341 392 36,000  Level Minneapolis Center
Mon 11:27:07 PM 41.8500 -97.7636 276° West 344 396 36,000  Level Minneapolis Center
Mon 11:28:08 PM 41.8594 -97.8897 276° West 343 395 36,000  Level Minneapolis Center
Mon 11:29:09 PM 41.8700 -98.0189 276° West 346 398 36,000  Level Minneapolis Center
Mon 11:30:10 PM 41.8803 -98.1483 276° West 349 402 36,000  Level Minneapolis Center
Mon 11:31:11 PM 41.8922 -98.2917 276° West 350 403 36,000  Level Minneapolis Center
Mon 11:32:12 PM 41.9017 -98.4233 276° West 353 406 36,000  Level Minneapolis Center
Mon 11:33:13 PM 41.8881 -98.5486 262° West 343 395 36,000  Level Minneapolis Center
Mon 11:34:14 PM 41.8678 -98.6733 258° West 343 395 36,000  Level Minneapolis Center
Mon 11:35:15 PM 41.8497 -98.7986 259° West 344 396 36,000  Level Minneapolis Center
Mon 11:36:16 PM 41.8122 -98.9156 247° West 345 397 36,000  Level Minneapolis Center
Mon 11:37:17 PM 41.7767 -99.0317 248° West 341 392 36,000  Level Minneapolis Center
Mon 11:38:18 PM 41.7417 -99.1489 248° West 341 392 36,000  Level Minneapolis Center
Mon 11:39:19 PM 41.7053 -99.2672 248° West 343 395 36,000  Level Minneapolis Center
Mon 11:40:20 PM 41.6689 -99.3853 248° West 344 396 36,000  Level Minneapolis Center
Mon 11:41:21 PM 41.6358 -99.4903 247° West 319 367 36,000  Level Minneapolis Center
Mon 11:42:22 PM 41.6050 -99.5906 248° West 258 297 36,000  Level Minneapolis Center
Mon 11:43:23 PM 41.5806 -99.6694 248° West 236 272 36,000  Level Minneapolis Center
Mon 11:44:24 PM 41.5547 -99.7556 248° West 244 281 36,000  Level Minneapolis Center
Mon 11:45:25 PM 41.5264 -99.8456 247° West 257 296 36,000  Level Minneapolis Center
Mon 11:46:26 PM 41.4972 -99.9333 246° West 259 298 36,000  Level Minneapolis Center
Mon 11:47:27 PM 41.4711 -100.0214 248° West 258 297 36,000  Level Minneapolis Center
Mon 11:48:28 PM 41.4419 -100.1075 246° West 255 293 36,000  Level Minneapolis Center
Mon 11:48:43 PM 41.4353 -100.1244 242° Southwest 255 293 36,000  Level Denver Center
Mon 11:49:44 PM 41.4044 -100.2217 247° West 255 293 36,000  Level Denver Center
Mon 11:50:45 PM 41.3786 -100.3042 247° West 254 292 36,000  Level Denver Center
Mon 11:51:46 PM 41.3469 -100.4028 247° West 258 297 36,000  Level Denver Center
Mon 11:52:48 PM 41.3194 -100.4861 246° West 258 297 36,000  Level Denver Center
Mon 11:53:49 PM 41.2925 -100.5697 247° West 258 297 36,000  Level Denver Center
Mon 11:54:50 PM 41.2608 -100.6678 247° West 260 299 36,000  Level Denver Center
Mon 11:55:51 PM 41.2336 -100.7525 247° West 261 300 36,000  Level Denver Center
Mon 11:56:52 PM 41.2011 -100.8503 246° West 261 300 36,000  Level Denver Center
Mon 11:57:54 PM 41.1744 -100.9350 247° West 262 302 36,000  Level Denver Center
Mon 11:58:55 PM 41.1414 -101.0333 246° West 263 303 36,000  Level Denver Center
Mon 11:59:56 PM 41.1144 -101.1156 247° West 258 297 36,000  Level Denver Center
Tue 12:00:57 AM 41.0872 -101.1978 246° West 256 295 36,000  Level Denver Center
Tue 12:01:58 AM 41.0553 -101.2947 246° West 257 296 36,000  Level Denver Center
Tue 12:02:59 AM 41.0283 -101.3789 247° West 260 299 36,000 -244 Level Denver Center
Tue 12:04:01 AM 40.9956 -101.4761 246° West 259 298 35,500 -927 Descending Denver Center
Tue 12:05:02 AM 40.9675 -101.5564 245° Southwest 253 291 34,100 -1,180 Descending Denver Center
Tue 12:06:03 AM 40.9431 -101.6300 246° West 234 269 33,100 -1,131 Descending Denver Center
Tue 12:07:04 AM 40.9158 -101.7075 245° Southwest 210 242 31,800 -1,033 Descending Denver Center
Tue 12:08:05 AM 40.8961 -101.7711 248° West 198 228 31,000 -393 Descending Denver Center
Tue 12:09:06 AM 40.8739 -101.8369 246° West 203 234 31,000 -197 Level Denver Center
Tue 12:10:07 AM 40.8481 -101.9133 246° West 204 235 30,600 -492 Descending Denver Center
Tue 12:11:08 AM 40.8261 -101.9764 245° Southwest 198 228 30,000 -267 Descending Denver Center
Tue 12:12:22 AM 40.7986 -102.0583 246° West 192 221 30,000  Level Denver Center
Tue 12:13:23 AM 40.7769 -102.1211 246° West 195 224 30,000  Level Denver Center
Tue 12:14:24 AM 40.7511 -102.1964 246° West 202 232 30,000  Level Denver Center
Tue 12:15:25 AM 40.7278 -102.2650 246° West 212 244 30,000  Level Denver Center
Tue 12:16:26 AM 40.7028 -102.3342 245° Southwest 218 251 30,000  Level Denver Center
Tue 12:17:27 AM 40.6742 -102.4178 246° West 223 257 30,000  Level Denver Center
Tue 12:18:28 AM 40.6494 -102.4883 245° Southwest 222 255 30,000  Level Denver Center
Tue 12:19:29 AM 40.6256 -102.5586 246° West 220 253 30,000  Level Denver Center
Tue 12:20:30 AM 40.5964 -102.6406 245° Southwest 222 255 30,000  Level Denver Center
Tue 12:21:31 AM 40.5708 -102.7153 246° West 216 249 30,000  Level Denver Center
Tue 12:22:32 AM 40.5461 -102.7847 245° Southwest 209 241 30,000  Level Denver Center
Tue 12:23:33 AM 40.5225 -102.8547 246° West 208 239 30,000  Level Denver Center
Tue 12:24:34 AM 40.4972 -102.9244 245° Southwest 210 242 30,000 -443 Level Denver Center
Tue 12:25:35 AM 40.4722 -102.9942 245° Southwest 208 239 29,100 -1,082 Descending Denver Center
Tue 12:26:36 AM 40.4506 -103.0578 246° West 192 221 27,800 -1,328 Descending Denver Center
Tue 12:27:37 AM 40.4269 -103.1217 244° Southwest 192 221 26,400 -1,328 Descending Denver Center
Tue 12:28:38 AM 40.4042 -103.1892 246° West 201 231 25,100 -1,180 Descending Denver Center
Tue 12:29:39 AM 40.3764 -103.2678 245° Southwest 232 267 24,000 -541 Descending Denver Center
Tue 12:30:40 AM 40.3503 -103.3408 245° Southwest 221 254 24,000  Level Denver Center
Tue 12:31:41 AM 40.3247 -103.4103 244° Southwest 211 243 24,000  Level Denver Center
Tue 12:32:42 AM 40.2964 -103.4889 245° Southwest 237 273 24,000  Level Denver Center
Tue 12:33:43 AM 40.2703 -103.5631 245° Southwest 223 257 24,000  Level Denver Center
Tue 12:34:44 AM 40.2447 -103.6319 244° Southwest 209 241 24,000  Level Denver Center
Tue 12:35:45 AM 40.2411 -103.7056 266° West 221 254 24,000  Level Denver Center
Tue 12:36:46 AM 40.3158 -103.7256 348° North 327 376 24,000  Level Denver Center
Tue 12:37:47 AM 40.3644 -103.6114 61° Northeast 367 422 24,000  Level Denver Center
Tue 12:38:48 AM 40.4069 -103.4919 65° Northeast 361 415 24,000 -295 Level Denver Center
Tue 12:39:49 AM 40.3844 -103.3936 107° East 301 346 23,400 -1,033 Descending Denver Center
Tue 12:40:50 AM 40.3236 -103.4156 195° South 231 266 21,900 -1,180 Descending Denver Center
Tue 12:41:51 AM 40.2986 -103.4831 244° Southwest 204 235 21,000 -443 Descending Denver Center
Tue 12:42:52 AM 40.2725 -103.5553 245° Southwest 215 247 21,000  Level Denver Center
Tue 12:43:52 AM 40.2456 -103.6286 244° Southwest 222 255 21,000  Level Denver Center
Tue 12:44:53 AM 40.2414 -103.7042 266° West 220 253 21,000  Level Denver Center
Tue 12:45:54 AM 40.2925 -103.7794 312° West 270 311 21,000 -344 Level Denver Center
Tue 12:46:55 AM 40.2422 -103.8286 217° Southwest 228 262 20,300 -1,131 Descending Denver Center
Tue 12:47:56 AM 40.2081 -103.8975 237° Southwest 227 261 18,700 -1,475 Descending Denver Center
Tue 12:48:57 AM 40.1792 -103.9667 241° Southwest 218 251 17,300 -1,426 Descending Denver Center
Tue 12:49:58 AM 40.1486 -104.0344 239° Southwest 216 249 15,800 -1,525 Descending Denver Center
Tue 12:50:59 AM 40.1178 -104.1067 241° Southwest 212 244 14,200 -1,328 Descending Denver Center
Tue 12:52:00 AM 40.0850 -104.1831 241° Southwest 248 285 13,100 -541 Descending Denver Center
Tue 12:53:01 AM 40.0472 -104.2708 241° Southwest 278 320 13,100 -50 Level Denver Center
Tue 12:54:01 AM 40.0089 -104.3617 241° Southwest 284 327 13,000  Descending Denver Center
Tue 12:55:02 AM 39.9756 -104.4369 240° Southwest 238 274 13,100 -403 Climbing Denver Center
Tue 12:56:15 AM 39.9339 -104.5325 240° Southwest 248 285 12,100 -896 Descending Denver Center
Tue 12:57:16 AM 39.8739 -104.5475 191° South 228 262 11,100 -492 Descending Denver Center
Tue 12:58:17 AM 39.8128 -104.5444 178° South 219 252 11,100  Level Denver Center
Tue 12:59:18 AM 39.7483 -104.5392 176° South 216 249 11,100  Level Denver Center
Tue 01:00:19 AM 39.6892 -104.5358 178° South 214 246 11,100  Level Denver Center
Tue 01:01:19 AM 39.6289 -104.5311 177° South 217 250 11,100  Level Denver Center
Tue 01:02:20 AM 39.5694 -104.5261 176° South 215 247 11,100 -344 Level Denver Center
Tue 01:03:21 AM 39.5103 -104.5225 177° South 215 247 10,400 -541 Descending Denver Center
Tue 01:04:22 AM 39.4767 -104.5744 230° Southwest 232 267 10,000 -149 Descending Denver Center
Tue 01:05:22 AM 39.5083 -104.6300 306° West 204 235 10,100 50 Climbing Denver Center
Tue 01:06:23 AM 39.5572 -104.6544 339° North 188 216 10,100 -49 Level Denver Center
Tue 01:07:24 AM 39.6111 -104.6633 353° North 194 223 10,000 -590 Descending Denver Center
Tue 01:08:25 AM 39.6644 -104.6625 North 193 222 8,900 -1,082 Descending Denver Center
Tue 01:09:26 AM 39.7161 -104.6619 360° North 185 213 7,800 -992 Descending Denver Center
Tue 01:10:26 AM 39.7603 -104.6614 North 161 185 6,900 -843 Descending Denver Center
Tue 01:11:27 AM 39.8036 -104.6611 360° North 147 169 6,100 -689 Descending Denver Center
Tue 01:12:28 AM 39.8403 -104.6606 North 141 162 5,500 -590 Descending Denver Center

Login

Don't have an account? Register now (free) for customized features, flight alerts, and more!